This is the latest recevied weather packets stored in our database for station/object EA2FBA-10. If no packets are shown the sender has not sent any weather packets the latest 1 day(s).
| Time | Temp. | Humidity | Pressure | Rain* | Wind** | Luminosity | Snow |
|---|---|---|---|---|---|---|---|
| 1777725581 | 19.44° C | 57% | 954.1 hPa | - | - | - | - |
| 1777724681 | 18.89° C | 57% | 954.2 hPa | - | - | - | - |
| 1777723781 | 18.89° C | 58% | 954.1 hPa | - | - | - | - |
| 1777722881 | 18.89° C | 59% | 954.1 hPa | - | - | - | - |
| 1777721981 | 18.33° C | 59% | 955.1 hPa | - | - | - | - |
| 1777721081 | 18.33° C | 59% | 955.1 hPa | - | - | - | - |
| 1777720181 | 18.89° C | 58% | 955.4 hPa | - | - | - | - |
| 1777719281 | 19.44° C | 56% | 955.5 hPa | - | - | - | - |
| 1777718381 | 20° C | 56% | 955.5 hPa | - | - | - | - |
| 1777717481 | 20° C | 55% | 954.7 hPa | - | - | - | - |
| 1777716580 | 20° C | 54% | 955.1 hPa | - | - | - | - |
| 1777715680 | 20° C | 55% | 955.4 hPa | - | - | - | - |
| 1777714780 | 19.44° C | 56% | 955.8 hPa | - | - | - | - |
| 1777713880 | 18.89° C | 59% | 956 hPa | - | - | - | - |
| 1777712980 | 18.89° C | 58% | 956.2 hPa | - | - | - | - |
| 1777712080 | 18.33° C | 60% | 956 hPa | - | - | - | - |
| 1777711180 | 17.78° C | 60% | 956 hPa | - | - | - | - |
| 1777710280 | 18.33° C | 60% | 955.8 hPa | - | - | - | - |
| 1777709380 | 17.78° C | 61% | 955.9 hPa | - | - | - | - |
| 1777708480 | 17.78° C | 62% | 956 hPa | - | - | - | - |
* Rain since midnight (hover to see other rain measurements)
** Current wind speed in m/s (hover to see current wind gust speed)